Time;durP1;ratioP1;P1;durP2;ratioP2;P2;SDS_P1;SDS_P2;PMS_P1;PMS_P2;Temp;Humidity;BMP_temperature;BMP_pressure;BME280_temperature;BME280_humidity;BME280_pressure;Samples;Min_cycle;Max_cycle;Signal;HPM_P1;HPM_P2
2021/10/23 00:00:58;;;;;;;0.40;0.40;;;;;;;10.73;66.08;102541.72;5125414;27;20378;-87
2021/10/23 00:03:24;;;;;;;0.10;0.10;;;;;;;10.71;65.38;102533.75;5114605;27;20020;-83
2021/10/23 00:05:51;;;;;;;0.10;0.10;;;;;;;10.81;65.83;102542.66;5124185;27;20057;-85
2021/10/23 00:08:17;;;;;;;0.10;0.10;;;;;;;10.86;64.94;102546.22;5122226;27;20332;-86
2021/10/23 00:10:44;;;;;;;0.20;0.20;;;;;;;10.94;65.36;102547.19;5121354;27;20425;-85
2021/10/23 00:13:11;;;;;;;0.10;0.10;;;;;;;11.00;64.98;102547.22;5127100;27;20394;-88
2021/10/23 00:15:38;;;;;;;0.10;0.10;;;;;;;11.08;64.87;102549.91;5124651;27;20623;-87
2021/10/23 00:18:05;;;;;;;0.10;0.10;;;;;;;11.13;64.98;102549.94;5125484;27;20459;-87
2021/10/23 00:20:32;;;;;;;0.10;0.10;;;;;;;11.17;64.70;102552.59;5120333;28;20141;-87
2021/10/23 00:22:58;;;;;;;0.05;0.05;;;;;;;11.20;64.95;102546.41;5114842;28;20424;-87
2021/10/23 00:25:24;;;;;;;0.10;0.10;;;;;;;11.24;64.88;102555.28;5115970;28;20023;-87
2021/10/23 00:27:51;;;;;;;0.10;0.10;;;;;;;11.24;65.15;102549.97;5116636;28;20047;-86
2021/10/23 00:30:18;;;;;;;0.10;0.10;;;;;;;11.22;65.11;102552.63;5116135;28;20031;-87
2021/10/23 00:33:01;;;;;;;0.10;0.10;;;;;;;11.23;65.32;102551.75;5119107;28;20032;-87
2021/10/23 00:35:35;;;;;;;0.10;0.10;;;;;;;11.26;65.10;102559.69;5114832;28;20035;-87
2021/10/23 00:38:12;;;;;;;0.10;0.10;;;;;;;11.24;65.09;102561.47;5117017;27;20024;-89
2021/10/23 00:40:39;;;;;;;0.20;0.20;;;;;;;11.20;65.28;102557.03;5120552;27;20027;-87
2021/10/23 00:43:05;;;;;;;0.90;0.90;;;;;;;11.15;65.34;102558.75;5118219;27;20028;-87
2021/10/23 00:45:32;;;;;;;0.32;0.32;;;;;;;11.12;65.30;102553.47;5118517;27;20521;-87
2021/10/23 00:47:58;;;;;;;0.10;0.10;;;;;;;11.11;65.44;102551.69;5117386;27;20020;-87
2021/10/23 00:50:25;;;;;;;0.10;0.10;;;;;;;11.03;65.41;102543.69;5126896;27;20031;-87
2021/10/23 00:52:52;;;;;;;0.10;0.10;;;;;;;10.98;65.09;102551.63;5136309;27;20015;-87
2021/10/23 00:55:20;;;;;;;0.10;0.10;;;;;;;10.97;65.19;102548.97;5132435;27;20050;-87
2021/10/23 00:57:47;;;;;;;0.10;0.10;;;;;;;10.91;64.98;102549.78;5119855;27;20493;-89
2021/10/23 01:00:13;;;;;;;0.10;0.10;;;;;;;10.91;64.82;102549.78;5128962;27;20051;-89
2021/10/23 01:02:40;;;;;;;0.10;0.10;;;;;;;10.90;64.91;102553.31;5119160;27;20081;-88
2021/10/23 01:05:10;;;;;;;0.10;0.10;;;;;;;10.91;65.03;102552.44;5121378;27;20024;-87
2021/10/23 01:07:43;;;;;;;0.10;0.10;;;;;;;10.92;64.83;102556.88;5122320;27;20088;-89
2021/10/23 01:10:11;;;;;;;0.10;0.10;;;;;;;10.94;64.93;102557.78;5119909;27;20066;-86
2021/10/23 01:12:42;;;;;;;0.10;0.10;;;;;;;10.97;64.93;102555.13;5117655;27;20031;-88
2021/10/23 01:15:21;;;;;;;0.10;0.10;;;;;;;10.99;64.96;102553.38;5120086;27;20024;-87
2021/10/23 01:17:48;;;;;;;0.10;0.10;;;;;;;10.93;65.07;102560.41;5116948;27;20114;-87
2021/10/23 01:20:15;;;;;;;0.10;0.10;;;;;;;10.89;65.26;102563.94;5118643;27;20031;-88
2021/10/23 01:22:41;;;;;;;0.00;0.00;;;;;;;10.88;65.55;102548.88;5115875;28;20028;-87
2021/10/23 01:25:10;;;;;;;0.10;0.10;;;;;;;10.88;65.46;102551.53;5132060;27;20031;-87
2021/10/23 01:27:38;;;;;;;0.10;0.10;;;;;;;10.86;65.39;102550.66;5117368;27;20027;-87
2021/10/23 01:30:11;;;;;;;0.10;0.10;;;;;;;10.84;65.29;102543.59;5116816;27;20377;-87
2021/10/23 01:32:38;;;;;;;0.20;0.20;;;;;;;10.78;65.10;102553.25;5118654;27;20031;-87
2021/10/23 01:35:06;;;;;;;0.10;0.10;;;;;;;10.72;65.11;102547.94;5118563;27;20024;-86
2021/10/23 01:37:48;;;;;;;0.10;0.10;;;;;;;10.74;65.07;102546.16;5117912;27;20031;-86
2021/10/23 01:40:17;;;;;;;;;;;;;;;10.73;64.47;102539.06;5121093;27;20035;-86
2021/10/23 01:42:44;;;;;;;0.10;0.10;;;;;;;10.54;64.47;102541.59;5118558;27;19951;-87
2021/10/23 01:45:11;;;;;;;0.10;0.10;;;;;;;10.54;64.62;102544.25;5119883;27;20027;-87
2021/10/23 01:47:39;;;;;;;0.10;0.10;;;;;;;10.48;64.69;102544.19;5116936;27;20030;-86
2021/10/23 01:50:27;;;;;;;0.10;0.10;;;;;;;10.46;64.76;102545.97;5116040;27;20020;-86
2021/10/23 01:52:56;;;;;;;0.10;0.10;;;;;;;10.35;64.59;102546.75;5115280;27;20459;-86
2021/10/23 01:55:23;;;;;;;4.22;1.75;;;;;;;10.28;64.69;102550.22;5121164;27;20498;-86
2021/10/23 01:57:49;;;;;;;0.10;0.10;;;;;;;10.19;64.42;102555.41;5119830;27;20024;-88
2021/10/23 02:00:19;;;;;;;0.10;0.10;;;;;;;10.19;64.66;102552.75;5116137;27;20129;-88
2021/10/23 02:02:45;;;;;;;0.00;0.00;;;;;;;10.18;64.17;102556.28;5115384;27;20016;-87
2021/10/23 02:05:12;;;;;;;0.10;0.10;;;;;;;10.14;64.48;102546.53;5118009;27;20563;-88
2021/10/23 02:07:41;;;;;;;0.00;0.00;;;;;;;10.10;64.66;102548.25;5120112;27;20032;-87
2021/10/23 02:10:08;;;;;;;0.10;0.10;;;;;;;10.06;64.30;102549.13;5117540;27;20016;-88
2021/10/23 02:12:38;;;;;;;0.10;0.10;;;;;;;10.06;64.57;102540.28;5126168;27;20497;-87
2021/10/23 02:15:06;;;;;;;0.10;0.10;;;;;;;9.98;64.56;102549.03;5116688;27;20100;-88
2021/10/23 02:17:33;;;;;;;0.10;0.10;;;;;;;9.93;64.82;102557.81;5115834;27;20138;-88
2021/10/23 02:20:02;;;;;;;0.10;0.10;;;;;;;9.92;64.81;102553.38;5116617;27;20027;-89
2021/10/23 02:22:28;;;;;;;0.10;0.10;;;;;;;9.86;64.49;102556.88;5117277;27;20034;-88
2021/10/23 02:24:55;;;;;;;0.10;0.10;;;;;;;9.85;64.91;102568.31;5118232;27;20047;-87
2021/10/23 02:27:21;;;;;;;0.20;0.20;;;;;;;9.82;64.41;102568.28;5117204;27;20363;-88
2021/10/23 02:29:48;;;;;;;0.10;0.10;;;;;;;9.78;64.47;102561.19;5117861;27;20030;-88
2021/10/23 02:32:15;;;;;;;0.10;0.10;;;;;;;9.76;64.52;102563.81;5122537;27;20031;-87
2021/10/23 02:34:41;;;;;;;0.03;0.03;;;;;;;9.69;64.78;102567.25;5133649;27;20367;-88
2021/10/23 02:37:08;;;;;;;0.10;0.10;;;;;;;9.57;64.74;102568.03;5133193;27;20490;-87
2021/10/23 02:39:34;;;;;;;0.10;0.10;;;;;;;9.57;64.25;102567.13;5133609;27;20427;-87
2021/10/23 02:42:01;;;;;;;0.10;0.10;;;;;;;9.53;64.81;102571.47;5132807;27;20020;-87
2021/10/23 02:44:27;;;;;;;0.10;0.10;;;;;;;9.51;64.56;102562.66;5133921;27;20023;-87
2021/10/23 02:46:53;;;;;;;0.10;0.10;;;;;;;9.48;65.18;102570.53;5132544;27;20031;-87
2021/10/23 02:49:20;;;;;;;0.10;0.10;;;;;;;9.45;64.63;102565.22;5134953;27;20377;-87
2021/10/23 02:51:46;;;;;;;0.10;0.10;;;;;;;9.43;65.13;102562.53;5132777;27;20083;-87
2021/10/23 02:54:13;;;;;;;0.10;0.10;;;;;;;9.44;64.99;102571.38;5120373;27;20029;-87
2021/10/23 02:56:40;;;;;;;0.10;0.10;;;;;;;9.48;65.34;102562.59;5133609;27;20084;-87
2021/10/23 02:59:06;;;;;;;0.20;0.20;;;;;;;9.48;64.88;102562.59;5120467;27;20084;-87
2021/10/23 03:01:33;;;;;;;0.10;0.10;;;;;;;9.47;65.26;102564.38;5127462;27;20028;-87
2021/10/23 03:03:59;;;;;;;0.00;0.00;;;;;;;9.46;64.90;102569.63;5126950;27;20373;-88
2021/10/23 03:06:26;;;;;;;0.10;0.10;;;;;;;9.46;65.26;102574.91;5134784;27;20038;-87
2021/10/23 03:08:52;;;;;;;0.10;0.10;;;;;;;9.45;64.85;102583.75;5134513;27;20046;-87
2021/10/23 03:11:18;;;;;;;0.00;0.00;;;;;;;9.43;64.94;102582.81;5134444;27;20039;-87
2021/10/23 03:13:45;;;;;;;0.10;0.10;;;;;;;9.38;65.00;102582.75;5134668;27;20030;-87
2021/10/23 03:16:12;;;;;;;0.10;0.10;;;;;;;9.33;65.27;102579.16;5134113;27;20094;-87
2021/10/23 03:18:38;;;;;;;0.10;0.10;;;;;;;9.28;64.88;102584.38;5134086;27;20385;-87
2021/10/23 03:21:05;;;;;;;0.10;0.10;;;;;;;9.23;64.70;102587.00;5120725;27;20027;-87
2021/10/23 03:23:31;;;;;;;0.10;0.10;;;;;;;9.22;64.79;102586.94;5132259;27;20035;-87
2021/10/23 03:25:58;;;;;;;0.10;0.10;;;;;;;9.19;64.77;102586.91;5133587;27;20042;-88
2021/10/23 03:28:24;;;;;;;0.10;0.10;;;;;;;9.16;65.65;102592.16;5132782;27;20023;-87
2021/10/23 03:30:51;;;;;;;0.10;0.10;;;;;;;9.14;65.42;102593.91;5133353;27;20023;-87
2021/10/23 03:33:17;;;;;;;0.10;0.10;;;;;;;9.14;65.81;102600.06;5133126;27;20378;-87
2021/10/23 03:35:44;;;;;;;0.10;0.10;;;;;;;9.14;65.49;102596.56;5133001;27;20493;-87
2021/10/23 03:38:10;;;;;;;0.10;0.10;;;;;;;9.14;65.17;102607.13;5133913;27;20066;-87
2021/10/23 03:40:36;;;;;;;0.10;0.10;;;;;;;9.10;65.00;102602.63;5134185;27;20054;-88
2021/10/23 03:43:03;;;;;;;0.10;0.10;;;;;;;9.06;65.59;102615.84;5133865;27;20030;-87
2021/10/23 03:45:29;;;;;;;0.10;0.10;;;;;;;9.02;65.16;102614.03;5133833;27;20094;-87
2021/10/23 03:47:55;;;;;;;0.10;0.10;;;;;;;9.00;65.27;102602.53;5124861;27;20063;-87
2021/10/23 03:50:22;;;;;;;0.10;0.10;;;;;;;8.97;65.11;102615.72;5133884;27;20049;-87
2021/10/23 03:52:48;;;;;;;0.10;0.10;;;;;;;8.93;64.84;102611.22;5134028;27;20034;-87
2021/10/23 03:55:14;;;;;;;0.10;0.10;;;;;;;8.92;64.98;102603.28;5133608;27;20072;-88
2021/10/23 03:57:41;;;;;;;0.10;0.10;;;;;;;8.88;65.40;102610.25;5128670;27;20502;-87
2021/10/23 04:00:08;;;;;;;0.10;0.10;;;;;;;8.85;65.48;102616.41;5122221;27;20423;-87
2021/10/23 04:02:35;;;;;;;0.17;0.17;;;;;;;8.82;65.57;102612.81;5133418;27;20056;-87
2021/10/23 04:05:01;;;;;;;0.13;0.13;;;;;;;8.81;65.21;102611.03;5133556;27;20098;-87
2021/10/23 04:07:27;;;;;;;0.10;0.10;;;;;;;8.79;65.44;102618.06;5134068;27;20054;-87
2021/10/23 04:09:53;;;;;;;0.10;0.10;;;;;;;8.76;64.83;102610.06;5133512;27;20407;-87
2021/10/23 04:12:19;;;;;;;0.10;0.10;;;;;;;8.73;65.03;102609.19;5133309;27;20039;-87
2021/10/23 04:14:45;;;;;;;0.10;0.10;;;;;;;8.70;64.99;102619.69;5133557;27;20058;-87
2021/10/23 04:17:12;;;;;;;0.20;0.20;;;;;;;8.69;65.54;102612.63;5133461;28;20038;-87
2021/10/23 04:19:38;;;;;;;0.10;0.10;;;;;;;8.67;65.25;102619.66;5133401;28;20035;-88
2021/10/23 04:22:04;;;;;;;0.15;0.15;;;;;;;8.63;65.27;102617.78;5133582;28;20493;-87
2021/10/23 04:24:30;;;;;;;0.10;0.10;;;;;;;8.60;65.50;102601.00;5133730;28;20043;-87
2021/10/23 04:26:56;;;;;;;0.10;0.10;;;;;;;8.58;65.59;102606.25;5133428;28;20633;-87
2021/10/23 04:29:23;;;;;;;0.10;0.10;;;;;;;8.59;65.88;102605.41;5133319;28;20068;-88
2021/10/23 04:31:49;;;;;;;0.10;0.10;;;;;;;8.60;65.63;102611.56;5133267;28;20405;-87
2021/10/23 04:34:16;;;;;;;0.55;0.55;;;;;;;8.58;65.22;102617.75;5133229;28;20030;-87
2021/10/23 04:36:43;;;;;;;0.10;0.10;;;;;;;8.62;65.07;102615.13;5133208;28;20404;-87
2021/10/23 04:39:09;;;;;;;0.10;0.10;;;;;;;8.64;65.90;102618.69;5145269;27;20057;-87
2021/10/23 04:41:37;;;;;;;0.10;0.10;;;;;;;8.66;65.52;102616.94;5133272;28;20048;-86
2021/10/23 04:44:03;;;;;;;0.10;0.10;;;;;;;8.65;66.51;102616.06;5119316;28;20019;-87
2021/10/23 04:46:30;;;;;;;0.10;0.10;;;;;;;8.67;66.20;102613.44;5133100;28;20035;-87
2021/10/23 04:48:56;;;;;;;0.10;0.10;;;;;;;8.68;66.39;102616.13;5119588;28;20024;-86
2021/10/23 04:51:22;;;;;;;0.10;0.10;;;;;;;8.69;66.31;102622.31;5113751;28;20027;-87
2021/10/23 04:53:50;;;;;;;0.10;0.10;;;;;;;8.69;65.56;102622.31;5113013;28;20471;-87
2021/10/23 04:56:17;;;;;;;0.10;0.10;;;;;;;8.70;66.14;102624.97;5113134;28;20072;-87
2021/10/23 04:58:43;;;;;;;0.10;0.10;;;;;;;8.74;66.52;102623.25;5124054;28;20096;-87
2021/10/23 05:01:10;;;;;;;0.10;0.10;;;;;;;8.76;66.92;102636.50;5132885;28;20041;-86
2021/10/23 05:03:36;;;;;;;0.20;0.20;;;;;;;8.79;66.43;102629.50;5133167;28;20024;-87
2021/10/23 05:06:02;;;;;;;0.10;0.10;;;;;;;8.81;66.50;102637.47;5133064;28;20031;-87
2021/10/23 05:08:28;;;;;;;0.10;0.10;;;;;;;8.83;66.23;102630.44;5133241;28;20027;-87
2021/10/23 05:10:55;;;;;;;0.10;0.10;;;;;;;8.86;66.45;102639.31;5133418;28;20035;-86
2021/10/23 05:13:21;;;;;;;0.10;0.10;;;;;;;8.90;66.40;102640.28;5127069;28;20027;-87
2021/10/23 05:15:47;;;;;;;0.10;0.10;;;;;;;8.91;66.32;102644.69;5124539;28;20031;-87
2021/10/23 05:18:13;;;;;;;0.17;0.17;;;;;;;8.94;66.70;102643.84;5132819;28;20483;-86
2021/10/23 05:20:40;;;;;;;0.10;0.10;;;;;;;9.00;66.37;102650.13;5132891;28;20031;-87
2021/10/23 05:23:06;;;;;;;0.10;0.10;;;;;;;9.03;66.72;102649.25;5133126;27;20478;-87
2021/10/23 05:25:32;;;;;;;0.10;0.10;;;;;;;9.10;67.13;102650.25;5136684;27;20030;-86
2021/10/23 05:27:58;;;;;;;0.10;0.10;;;;;;;9.12;67.10;102649.44;5137032;27;20430;-86
2021/10/23 05:30:24;;;;;;;0.10;0.10;;;;;;;9.16;66.75;102647.69;5136749;27;20027;-86
2021/10/23 05:32:50;;;;;;;0.10;0.10;;;;;;;9.15;67.18;102651.22;5137115;27;20095;-86
2021/10/23 05:35:19;;;;;;;0.10;0.10;;;;;;;9.16;66.90;102647.69;5137172;27;20031;-86
2021/10/23 05:37:45;;;;;;;0.15;0.15;;;;;;;9.15;67.09;102653.88;5136082;27;20385;-86
2021/10/23 05:40:12;;;;;;;0.10;0.10;;;;;;;9.15;66.53;102649.47;5136206;27;20099;-86
2021/10/23 05:42:38;;;;;;;0.10;0.10;;;;;;;9.17;66.80;102650.38;5136222;27;20030;-87
2021/10/23 05:45:05;;;;;;;0.10;0.10;;;;;;;9.21;66.59;102654.84;5136215;27;20104;-86
2021/10/23 05:47:32;;;;;;;0.10;0.10;;;;;;;9.28;66.98;102655.81;5136119;27;20546;-86
2021/10/23 05:49:58;;;;;;;0.10;0.10;;;;;;;9.36;67.06;102658.59;5136021;27;20076;-87
2021/10/23 05:52:24;;;;;;;0.20;0.20;;;;;;;9.44;66.72;102661.34;5136001;27;20034;-88
2021/10/23 05:54:50;;;;;;;0.10;0.10;;;;;;;9.49;67.16;102655.22;5135963;27;20023;-87
2021/10/23 05:57:16;;;;;;;0.10;0.10;;;;;;;9.56;66.87;102666.78;5132883;27;20119;-87
2021/10/23 05:59:45;;;;;;;0.10;0.10;;;;;;;9.66;67.25;102673.09;5148158;27;20037;-87
2021/10/23 06:02:45;;;;;;;0.10;0.10;;;;;;;9.75;67.43;102678.50;5135916;27;20023;-87
2021/10/23 06:05:01;;;;;;;0.10;0.10;;;;;;;9.85;67.42;102679.50;5121907;27;20026;-87
2021/10/23 06:07:31;;;;;;;0.10;0.10;;;;;;;9.94;67.64;102686.69;5135949;27;20074;-87
2021/10/23 06:09:58;;;;;;;0.10;0.10;;;;;;;10.00;67.44;102692.94;5135618;27;20034;-87
2021/10/23 06:12:25;;;;;;;0.10;0.10;;;;;;;10.04;67.54;102684.19;5135711;27;20031;-87
2021/10/23 06:14:53;;;;;;;0.10;0.10;;;;;;;10.13;67.68;102690.44;5135585;27;20075;-87
2021/10/23 06:17:20;;;;;;;0.10;0.10;;;;;;;10.21;67.77;102688.75;5135769;27;20545;-86
2021/10/23 06:19:46;;;;;;;0.20;0.20;;;;;;;10.27;67.42;102694.13;5135846;27;20160;-87
2021/10/23 06:22:12;;;;;;;0.10;0.10;;;;;;;10.33;67.53;102694.19;5135791;27;20038;-87
2021/10/23 06:24:39;;;;;;;0.10;0.10;;;;;;;10.42;67.89;102692.53;5135172;27;20104;-87
2021/10/23 06:27:05;;;;;;;0.10;0.10;;;;;;;10.46;67.65;102684.63;5135650;27;20027;-87
2021/10/23 06:29:32;;;;;;;0.10;0.10;;;;;;;10.49;68.30;102695.28;5135213;27;20091;-84
2021/10/23 06:31:59;;;;;;;0.20;0.20;;;;;;;10.59;68.03;102698.94;5135112;27;20035;-87
2021/10/23 06:34:26;;;;;;;0.10;0.10;;;;;;;10.64;68.16;102713.09;5134982;27;20027;-87
2021/10/23 06:36:52;;;;;;;0.10;0.10;;;;;;;10.72;67.90;102710.53;5134955;27;20027;-88
2021/10/23 06:39:18;;;;;;;0.10;0.10;;;;;;;10.77;68.07;102714.09;5134640;27;20035;-86
2021/10/23 06:41:44;;;;;;;0.10;0.10;;;;;;;10.86;67.80;102713.28;5134274;27;20098;-86
2021/10/23 06:44:11;;;;;;;0.10;0.10;;;;;;;10.93;68.09;102722.19;5129771;27;20621;-87
2021/10/23 06:46:38;;;;;;;0.10;0.10;;;;;;;10.99;67.88;102717.84;5129696;27;20031;-87
2021/10/23 06:49:06;;;;;;;0.10;0.10;;;;;;;11.06;68.06;102712.59;5134203;27;20023;-87
2021/10/23 06:51:33;;;;;;;0.10;0.10;;;;;;;11.12;67.98;102709.97;5129660;27;20045;-86
2021/10/23 06:54:01;;;;;;;0.10;0.10;;;;;;;11.16;67.93;102710.03;5129468;27;20023;-86
2021/10/23 06:56:28;;;;;;;0.10;0.10;;;;;;;11.22;68.16;102705.63;5126098;27;20024;-87
2021/10/23 06:58:55;;;;;;;0.10;0.10;;;;;;;11.26;68.30;102710.94;5142613;27;20026;-87
2021/10/23 07:01:22;;;;;;;0.10;0.10;;;;;;;11.31;67.90;102706.59;5135993;27;20027;-86
2021/10/23 07:03:49;;;;;;;0.15;0.15;;;;;;;11.39;67.92;102708.38;5134892;27;20034;-87
2021/10/23 07:06:15;;;;;;;0.10;0.10;;;;;;;11.45;68.00;102724.34;5134684;27;20031;-86
2021/10/23 07:08:42;;;;;;;0.13;0.13;;;;;;;11.48;67.92;102721.72;5134646;27;20072;-87
2021/10/23 07:11:08;;;;;;;0.10;0.10;;;;;;;11.53;67.67;102732.38;5134075;27;20546;-87
2021/10/23 07:13:35;;;;;;;0.08;0.08;;;;;;;11.58;67.95;102739.47;5134628;27;20031;-86
2021/10/23 07:16:02;;;;;;;0.10;0.10;;;;;;;11.65;67.61;102740.41;5134449;27;20171;-86
2021/10/23 07:18:28;;;;;;;0.10;0.10;;;;;;;11.65;68.09;102748.38;5128110;27;20038;-87
2021/10/23 07:20:54;;;;;;;0.10;0.10;;;;;;;11.75;67.98;102746.66;5131814;27;20072;-87
2021/10/23 07:23:21;;;;;;;0.10;0.10;;;;;;;11.79;68.02;102745.81;5124963;27;20039;-90
2021/10/23 07:25:51;;;;;;;0.10;0.10;;;;;;;11.87;67.95;102746.72;5126078;27;20469;-87
2021/10/23 07:28:17;;;;;;;0.10;0.10;;;;;;;11.91;67.78;102751.19;5120113;27;20283;-87
2021/10/23 07:30:44;;;;;;;0.10;0.10;;;;;;;11.96;68.05;102752.13;5126275;27;20582;-86
2021/10/23 07:33:10;;;;;;;0.10;0.10;;;;;;;12.01;67.75;102748.59;5126434;27;20036;-86
2021/10/23 07:35:36;;;;;;;0.20;0.20;;;;;;;12.07;67.74;102745.97;5115971;27;20038;-87
2021/10/23 07:38:03;;;;;;;0.10;0.10;;;;;;;12.11;67.86;102750.41;5132258;27;20160;-88
2021/10/23 07:40:29;;;;;;;0.05;0.05;;;;;;;12.12;67.93;102760.16;5124103;27;20099;-89
2021/10/23 07:42:56;;;;;;;0.10;0.10;;;;;;;12.16;67.66;102758.41;5125717;27;20466;-87
2021/10/23 07:45:22;;;;;;;0.10;0.10;;;;;;;12.18;67.95;102772.59;5125121;27;20104;-87
2021/10/23 07:47:48;;;;;;;0.10;0.10;;;;;;;12.20;68.05;102766.41;5123998;27;20028;-86
2021/10/23 07:50:14;;;;;;;0.10;0.10;;;;;;;12.22;67.38;102775.25;5129787;27;20046;-87
2021/10/23 07:52:41;;;;;;;0.10;0.10;;;;;;;12.23;67.76;102779.69;5123765;27;20042;-88
2021/10/23 07:55:12;;;;;;;0.32;0.32;;;;;;;12.28;67.85;102779.72;5123083;27;20020;-90
2021/10/23 07:57:40;;;;;;;0.75;0.75;;;;;;;12.33;67.76;102779.75;5125445;27;20035;-87
2021/10/23 08:00:08;;;;;;;0.10;0.10;;;;;;;12.38;67.44;102778.88;5133122;27;20076;-88
2021/10/23 08:02:34;;;;;;;0.10;0.10;;;;;;;12.43;68.32;102777.09;5133295;27;20124;-89
2021/10/23 08:05:01;;;;;;;0.10;0.10;;;;;;;12.50;67.80;102783.34;5127541;27;20399;-88
2021/10/23 08:07:27;;;;;;;0.10;0.10;;;;;;;12.58;67.95;102783.34;5125484;27;20263;-89
2021/10/23 08:09:54;;;;;;;0.10;0.10;;;;;;;12.65;68.20;102778.94;5123113;27;20051;-86
2021/10/23 08:12:20;;;;;;;0.10;0.10;;;;;;;12.76;67.93;102785.16;5118782;27;20028;-86
2021/10/23 08:14:46;;;;;;;0.10;0.10;;;;;;;12.86;68.30;102788.72;5120778;27;20031;-86
2021/10/23 08:17:12;;;;;;;0.10;0.10;;;;;;;12.98;67.71;102787.88;5130584;27;20486;-85
2021/10/23 08:19:38;;;;;;;0.10;0.10;;;;;;;13.02;68.09;102785.22;5119785;28;20035;-86
2021/10/23 08:22:06;;;;;;;0.10;0.10;;;;;;;13.10;67.94;102793.22;5120919;27;20489;-87
2021/10/23 08:24:32;;;;;;;0.10;0.10;;;;;;;13.20;68.05;102796.78;5118661;28;20043;-86
2021/10/23 08:26:58;;;;;;;0.10;0.10;;;;;;;13.25;68.01;102798.53;5123801;28;20042;-86
2021/10/23 08:29:24;;;;;;;1.15;1.10;;;;;;;13.32;67.96;102795.88;5127714;28;20023;-86
2021/10/23 08:31:51;;;;;;;0.10;0.10;;;;;;;13.39;67.88;102800.34;5121158;28;20082;-86
2021/10/23 08:34:17;;;;;;;0.10;0.10;;;;;;;13.42;67.70;102793.25;5121577;28;20019;-86
2021/10/23 08:36:43;;;;;;;0.10;0.10;;;;;;;13.45;67.42;102795.00;5120296;28;20071;-86
2021/10/23 08:39:09;;;;;;;0.10;0.10;;;;;;;13.48;67.38;102792.34;5119201;27;20059;-89
2021/10/23 08:41:36;;;;;;;0.10;0.10;;;;;;;13.52;67.27;102788.81;5124984;28;20028;-86
2021/10/23 08:44:05;;;;;;;0.77;0.77;;;;;;;13.54;67.71;102789.66;5129251;27;20491;-84
2021/10/23 08:46:35;;;;;;;0.10;0.10;;;;;;;13.59;67.67;102787.91;5128090;27;20028;-84
2021/10/23 08:49:03;;;;;;;0.10;0.10;;;;;;;13.63;67.72;102790.56;5121340;28;20035;-87
2021/10/23 08:51:31;;;;;;;0.28;0.28;;;;;;;13.67;67.51;102790.56;5117410;28;20042;-87
2021/10/23 08:54:00;;;;;;;0.10;0.10;;;;;;;13.68;67.75;102792.34;5127450;28;20029;-89
2021/10/23 08:56:29;;;;;;;0.20;0.20;;;;;;;13.76;67.66;102802.97;5131273;28;20031;-89
2021/10/23 08:58:57;;;;;;;0.10;0.10;;;;;;;13.81;67.79;102809.16;5128855;27;20027;-89
2021/10/23 09:01:24;;;;;;;0.10;0.10;;;;;;;13.83;66.89;102803.81;5135810;27;20046;-90
2021/10/23 09:03:50;;;;;;;0.10;0.10;;;;;;;13.89;67.66;102801.16;5134447;27;20023;-88
2021/10/23 09:06:38;;;;;;;0.10;0.10;;;;;;;14.00;67.36;102803.81;5134467;27;20078;-88
2021/10/23 09:09:33;;;;;;;0.52;0.52;;;;;;;13.98;66.94;102810.91;5135763;27;20023;-89
2021/10/23 09:11:59;;;;;;;0.10;0.10;;;;;;;14.00;66.81;102811.78;5074136;28;20050;-88
2021/10/23 09:17:11;;;;;;;0.60;0.60;;;;;;;14.03;67.13;102814.44;5080495;27;20851;-88
2021/10/23 09:22:42;;;;;;;0.10;0.10;;;;;;;14.07;67.08;102816.22;5054357;27;20433;-89
2021/10/23 09:25:27;;;;;;;0.28;0.28;;;;;;;14.16;66.68;102820.63;5053476;28;20041;-89
2021/10/23 09:30:38;;;;;;;0.40;0.40;;;;;;;14.08;66.56;102815.31;5115755;27;20769;-87
2021/10/23 09:33:08;;;;;;;1.92;1.83;;;;;;;14.12;66.26;102818.84;5099716;28;20131;-88
2021/10/23 09:35:40;;;;;;;1.17;1.17;;;;;;;14.16;66.18;102817.97;5093922;28;20051;-88
2021/10/23 09:38:08;;;;;;;0.30;0.30;;;;;;;14.23;66.17;102828.59;5095446;28;20101;-89
2021/10/23 09:40:37;;;;;;;0.57;0.57;;;;;;;14.18;65.50;102830.41;5100517;28;20449;-86
2021/10/23 09:46:10;;;;;;;0.10;0.10;;;;;;;14.42;65.39;102830.28;5075265;27;20456;-89
2021/10/23 09:48:45;;;;;;;0.45;0.45;;;;;;;14.34;65.26;102825.91;5055686;28;20031;-86
2021/10/23 09:51:17;;;;;;;0.10;0.10;;;;;;;14.39;65.12;102823.19;5053551;28;20025;-88
2021/10/23 09:53:45;;;;;;;;;;;;;;;14.51;64.54;102825.81;5052766;28;20033;-92
2021/10/23 09:56:15;;;;;;;0.20;0.20;;;;;;;14.43;64.80;102822.31;5054995;28;19925;-87
2021/10/23 10:01:42;;;;;;;0.10;0.10;;;;;;;14.51;64.90;102825.81;5068251;27;20400;-89
2021/10/23 10:04:12;;;;;;;0.13;0.13;;;;;;;14.55;64.43;102832.00;5052106;28;20041;-91
2021/10/23 10:06:41;;;;;;;0.10;0.10;;;;;;;14.60;64.29;102826.66;5053237;28;20094;-84
2021/10/23 10:09:08;;;;;;;0.68;0.68;;;;;;;14.56;64.94;102831.13;5055615;28;20036;-85
2021/10/23 10:11:37;;;;;;;0.30;0.30;;;;;;;14.64;64.38;102831.09;5050920;28;20082;-84
2021/10/23 10:14:06;;;;;;;0.08;0.08;;;;;;;14.72;64.84;102837.31;5050867;28;20494;-85
2021/10/23 10:16:33;;;;;;;0.10;0.10;;;;;;;14.73;64.26;102839.09;5054268;28;20120;-85
2021/10/23 10:18:59;;;;;;;0.20;0.20;;;;;;;14.72;63.65;102842.66;5051001;28;20481;-86
2021/10/23 10:21:32;;;;;;;1.10;0.52;;;;;;;14.76;63.80;102833.72;5055885;28;20041;-84
2021/10/23 10:23:58;;;;;;;0.77;0.77;;;;;;;14.77;63.39;102845.31;5053342;28;20115;-85
2021/10/23 10:26:29;;;;;;;0.40;0.40;;;;;;;14.75;62.76;102839.06;5054998;28;20038;-89
2021/10/23 10:32:23;;;;;;;0.52;0.40;;;;;;;14.94;62.85;102845.19;5058303;27;20523;-84
2021/10/23 10:37:50;;;;;;;0.10;0.10;;;;;;;14.97;63.34;102834.50;5058744;28;20406;-87
2021/10/23 10:40:45;;;;;;;0.20;0.20;;;;;;;14.95;61.50;102839.81;5060079;28;20033;-89
2021/10/23 10:43:13;;;;;;;1.10;1.00;;;;;;;15.05;62.52;102843.31;5041787;28;20487;-84
2021/10/23 10:56:48;;;;;;;0.10;0.10;;;;;;;15.19;61.05;102843.25;5154431;27;20752;-84
2021/10/23 10:59:55;;;;;;;0.77;0.77;;;;;;;15.24;60.22;102837.84;5139588;27;20027;-85
2021/10/23 11:02:32;;;;;;;0.32;0.32;;;;;;;15.37;61.58;102837.75;5135759;27;20457;-85
2021/10/23 11:05:19;;;;;;;0.10;0.10;;;;;;;15.44;61.15;102838.59;5129194;27;20028;-87
2021/10/23 11:08:06;;;;;;;0.10;0.10;;;;;;;15.53;61.20;102835.81;5128750;27;20027;-86
2021/10/23 11:10:49;;;;;;;0.10;0.10;;;;;;;15.59;61.54;102834.91;5129013;27;20039;-91
2021/10/23 11:13:23;;;;;;;;;;;;;;;15.69;61.02;102839.25;5126231;27;20028;-90
2021/10/23 11:15:49;;;;;;;0.43;0.43;;;;;;;15.60;61.12;102835.78;5123702;28;19916;-86
2021/10/23 11:18:17;;;;;;;0.10;0.10;;;;;;;15.61;61.02;102837.56;5126847;27;20140;-89
2021/10/23 11:20:46;;;;;;;0.10;0.10;;;;;;;15.65;61.50;102821.47;5129079;27;20027;-88
2021/10/23 11:23:21;;;;;;;0.10;0.10;;;;;;;15.73;61.32;102820.53;5122926;28;20027;-90
2021/10/23 11:25:50;;;;;;;0.10;0.10;;;;;;;15.70;61.69;102818.75;5137405;27;20383;-87
2021/10/23 11:28:16;;;;;;;0.10;0.10;;;;;;;15.74;61.51;102815.16;5136488;27;20030;-88
2021/10/23 11:30:43;;;;;;;0.40;0.40;;;;;;;15.81;62.15;102821.31;5123652;28;20028;-86
2021/10/23 11:33:15;;;;;;;0.10;0.10;;;;;;;15.89;62.33;102823.94;5129319;27;20458;-89
2021/10/23 11:38:24;;;;;;;0.20;0.20;;;;;;;15.83;61.48;102827.56;5089312;28;20453;-90
2021/10/23 11:40:55;;;;;;;0.13;0.13;;;;;;;15.83;59.71;102824.91;5063914;28;20029;-88
2021/10/23 11:43:22;;;;;;;0.17;0.17;;;;;;;15.77;59.76;102832.94;5061957;28;20051;-96
2021/10/23 11:45:48;;;;;;;0.25;0.25;;;;;;;15.72;59.64;102832.13;5062719;28;20037;-95
2021/10/23 11:48:18;;;;;;;0.15;0.15;;;;;;;15.66;58.59;102836.63;5061847;28;20039;-90
2021/10/23 11:50:46;;;;;;;0.10;0.10;;;;;;;15.66;60.20;102839.28;5063257;28;20075;-89
2021/10/23 11:53:29;;;;;;;0.10;0.10;;;;;;;15.62;58.29;102839.31;5068229;28;20091;-89
2021/10/23 11:56:00;;;;;;;;;;;;;;;15.79;58.46;102834.72;5074379;28;20044;-93
2021/10/23 11:58:29;;;;;;;0.10;0.10;;;;;;;15.64;58.40;102842.88;5066287;28;19928;-90
2021/10/23 12:01:03;;;;;;;0.10;0.10;;;;;;;15.71;59.50;102831.22;5066711;28;20029;-87
2021/10/23 12:08:55;;;;;;;0.10;0.10;;;;;;;15.61;59.07;102826.88;5089132;27;20410;-92
2021/10/23 12:11:26;;;;;;;0.10;0.10;;;;;;;15.67;59.43;102821.47;5070199;28;20056;-95
2021/10/23 12:22:18;;;;;;;0.10;0.10;;;;;;;15.63;59.99;102833.97;5116555;27;20774;-88